Time;durP1;ratioP1;P1;durP2;ratioP2;P2;SDS_P1;SDS_P2;PMS_P1;PMS_P2;Temp;Humidity;BMP_temperature;BMP_pressure;BME280_temperature;BME280_humidity;BME280_pressure;Samples;Min_cycle;Max_cycle;Signal;HPM_P1;HPM_P2
2024/01/13 00:02:22;;;;;;;12.00;7.27;;;3.70;99.90;;;;;;5015621;28;20475;-61
2024/01/13 00:04:47;;;;;;;10.77;6.60;;;3.70;99.90;;;;;;5016064;28;20205;-61
2024/01/13 00:07:16;;;;;;;12.00;6.50;;;3.70;99.90;;;;;;5016355;28;20247;-62
2024/01/13 00:09:41;;;;;;;12.43;7.07;;;3.70;99.90;;;;;;5014934;28;20186;-62
2024/01/13 00:12:09;;;;;;;10.27;6.63;;;3.70;99.90;;;;;;5015631;28;20195;-62
2024/01/13 00:14:39;;;;;;;12.37;6.73;;;3.70;99.90;;;;;;5015850;28;20251;-61
2024/01/13 00:17:07;;;;;;;12.93;7.47;;;3.70;99.90;;;;;;5013885;28;20277;-62
2024/01/13 00:19:33;;;;;;;12.97;7.47;;;3.70;99.90;;;;;;5014123;28;20198;-62
2024/01/13 00:22:01;;;;;;;13.67;7.83;;;3.70;99.90;;;;;;5015994;28;20499;-62
2024/01/13 00:24:26;;;;;;;14.27;7.87;;;3.70;99.90;;;;;;5012895;28;20220;-62
2024/01/13 00:26:54;;;;;;;13.83;7.73;;;3.80;99.90;;;;;;5010645;28;20206;-61
2024/01/13 00:29:22;;;;;;;14.07;8.20;;;3.70;99.90;;;;;;5013283;28;20212;-62
2024/01/13 00:31:50;;;;;;;13.77;7.67;;;3.80;99.90;;;;;;5011176;28;20247;-62
2024/01/13 00:34:15;;;;;;;14.67;8.07;;;3.70;99.90;;;;;;5009205;28;20264;-63
2024/01/13 00:36:41;;;;;;;16.67;8.20;;;3.80;99.90;;;;;;5014225;28;20418;-61
2024/01/13 00:39:11;;;;;;;15.00;8.80;;;3.80;99.90;;;;;;5014941;28;20198;-62
2024/01/13 00:41:38;;;;;;;15.83;8.43;;;3.70;99.90;;;;;;5016779;28;20275;-62
2024/01/13 00:44:08;;;;;;;13.77;8.20;;;3.70;99.90;;;;;;5013978;28;20186;-62
2024/01/13 00:46:34;;;;;;;13.03;7.43;;;3.70;99.90;;;;;;5007608;28;20201;-63
2024/01/13 00:49:00;;;;;;;13.40;8.00;;;3.70;99.90;;;;;;5015684;28;20240;-62
2024/01/13 00:51:25;;;;;;;13.77;8.47;;;3.70;99.90;;;;;;5013995;28;20411;-62
2024/01/13 00:53:51;;;;;;;13.03;7.77;;;3.70;99.90;;;;;;5015526;28;20365;-62
2024/01/13 00:56:16;;;;;;;16.77;9.27;;;3.70;99.90;;;;;;5013606;28;20233;-62
2024/01/13 00:58:42;;;;;;;15.13;8.83;;;3.70;99.90;;;;;;5014659;28;20213;-63
2024/01/13 01:01:08;;;;;;;15.80;9.07;;;3.80;99.90;;;;;;5015119;28;20186;-62
2024/01/13 01:03:33;;;;;;;15.70;8.90;;;3.80;99.90;;;;;;5013745;28;20188;-61
2024/01/13 01:05:59;;;;;;;15.40;8.93;;;3.80;99.90;;;;;;5010942;28;20210;-62
2024/01/13 01:08:26;;;;;;;16.50;8.67;;;3.80;99.90;;;;;;5030318;28;20186;-68
2024/01/13 01:10:51;;;;;;;12.53;7.83;;;3.80;99.90;;;;;;5013647;28;20277;-67
2024/01/13 01:13:17;;;;;;;16.17;8.53;;;3.70;99.90;;;;;;5013431;28;20272;-68
2024/01/13 01:15:45;;;;;;;15.77;8.27;;;3.80;99.90;;;;;;5010583;28;20182;-66
2024/01/13 01:18:10;;;;;;;14.30;7.97;;;3.70;99.90;;;;;;5013983;28;20206;-68
2024/01/13 01:20:36;;;;;;;14.73;8.43;;;3.70;99.90;;;;;;5014591;28;20228;-65
2024/01/13 01:23:05;;;;;;;14.47;7.67;;;3.80;99.90;;;;;;5013929;28;20202;-68
2024/01/13 01:25:30;;;;;;;12.70;7.33;;;3.80;99.90;;;;;;5013399;28;20293;-67
2024/01/13 01:27:56;;;;;;;14.40;8.07;;;3.80;99.90;;;;;;5012535;28;20378;-68
2024/01/13 01:30:23;;;;;;;13.03;8.03;;;3.80;99.90;;;;;;5015056;28;20208;-65
2024/01/13 01:32:50;;;;;;;11.93;7.60;;;3.80;99.90;;;;;;5012663;28;20167;-62
2024/01/13 01:35:18;;;;;;;14.77;7.93;;;3.80;99.90;;;;;;5014657;28;20269;-67
2024/01/13 01:37:43;;;;;;;14.57;8.37;;;3.90;99.90;;;;;;5014560;28;20189;-68
2024/01/13 01:40:14;;;;;;;13.07;7.83;;;3.80;99.90;;;;;;5014032;28;20200;-66
2024/01/13 01:42:40;;;;;;;12.67;7.57;;;3.90;99.90;;;;;;5010766;28;20292;-66
2024/01/13 01:45:07;;;;;;;12.97;7.73;;;3.80;99.90;;;;;;5026821;28;20278;-66
2024/01/13 01:47:35;;;;;;;12.97;7.93;;;3.80;99.90;;;;;;5013653;28;20189;-68
2024/01/13 01:50:03;;;;;;;13.30;7.67;;;3.80;99.90;;;;;;5014817;28;20200;-68
2024/01/13 01:52:34;;;;;;;13.27;7.80;;;3.80;99.90;;;;;;5014654;28;20264;-67
2024/01/13 01:55:05;;;;;;;13.57;8.13;;;3.80;99.90;;;;;;5015716;28;20173;-66
2024/01/13 01:57:31;;;;;;;15.07;7.97;;;3.90;99.90;;;;;;5017693;28;20297;-67
2024/01/13 01:59:58;;;;;;;16.77;8.40;;;3.80;99.90;;;;;;5013245;28;20260;-66
2024/01/13 02:02:25;;;;;;;14.37;8.33;;;3.80;99.90;;;;;;5014948;28;20189;-67
2024/01/13 02:04:52;;;;;;;15.43;8.67;;;3.80;99.90;;;;;;5014057;28;20226;-67
2024/01/13 02:07:18;;;;;;;16.30;8.60;;;3.80;99.90;;;;;;5015112;28;20178;-67
2024/01/13 02:09:47;;;;;;;15.43;8.80;;;3.80;99.90;;;;;;5014673;28;20178;-66
2024/01/13 02:12:15;;;;;;;12.97;8.43;;;3.80;99.90;;;;;;5013650;28;20194;-67
2024/01/13 02:14:43;;;;;;;15.13;8.77;;;3.80;99.90;;;;;;5012497;28;20404;-68
2024/01/13 02:17:13;;;;;;;14.73;8.13;;;3.80;99.90;;;;;;5013451;28;20247;-65
2024/01/13 02:19:39;;;;;;;14.40;8.90;;;4.00;99.90;;;;;;5018003;28;20258;-65
2024/01/13 02:22:05;;;;;;;14.00;8.03;;;3.80;99.90;;;;;;5017867;28;20291;-67
2024/01/13 02:24:30;;;;;;;15.10;8.67;;;3.80;99.90;;;;;;5019046;28;20190;-66
2024/01/13 02:26:56;;;;;;;16.47;9.30;;;3.90;99.90;;;;;;5034981;28;20198;-68
2024/01/13 02:29:24;;;;;;;13.60;8.07;;;3.80;99.90;;;;;;5017793;28;20182;-66
2024/01/13 02:31:49;;;;;;;14.93;8.40;;;3.80;99.90;;;;;;5019410;28;20189;-67
2024/01/13 02:34:15;;;;;;;14.07;8.57;;;3.80;99.90;;;;;;5018892;28;20248;-65
2024/01/13 02:36:43;;;;;;;14.80;8.37;;;3.80;99.90;;;;;;5018296;28;20178;-66
2024/01/13 02:39:08;;;;;;;12.93;7.53;;;3.80;99.90;;;;;;5017132;28;20213;-68
2024/01/13 02:41:34;;;;;;;15.30;8.20;;;3.80;99.90;;;;;;5017858;28;20188;-67
2024/01/13 02:43:59;;;;;;;14.47;7.67;;;3.80;99.90;;;;;;5016037;28;20196;-68
2024/01/13 02:46:27;;;;;;;11.27;6.70;;;3.80;99.90;;;;;;5015464;28;21561;-68
2024/01/13 02:48:56;;;;;;;11.80;6.97;;;3.80;99.90;;;;;;5013227;28;20341;-67
2024/01/13 02:51:22;;;;;;;10.53;6.50;;;3.80;99.90;;;;;;5016245;28;20186;-65
2024/01/13 02:53:47;;;;;;;11.47;7.13;;;3.80;99.90;;;;;;5013798;28;20212;-67
2024/01/13 02:56:16;;;;;;;11.43;6.67;;;3.80;99.90;;;;;;5015513;28;20188;-67
2024/01/13 02:58:42;;;;;;;10.90;6.63;;;3.80;99.90;;;;;;5015969;28;20214;-63
2024/01/13 03:01:07;;;;;;;11.43;6.30;;;3.80;99.90;;;;;;5005583;28;20205;-67
2024/01/13 03:03:34;;;;;;;11.40;6.47;;;3.80;99.90;;;;;;5012149;28;20202;-65
2024/01/13 03:06:00;;;;;;;10.57;6.53;;;4.00;99.90;;;;;;5030458;28;20205;-68
2024/01/13 03:08:26;;;;;;;12.87;6.73;;;3.90;99.90;;;;;;5015200;28;20189;-67
2024/01/13 03:10:51;;;;;;;10.73;6.10;;;3.90;99.90;;;;;;5015940;28;20178;-64
2024/01/13 03:13:17;;;;;;;10.67;6.43;;;3.90;99.90;;;;;;5015302;28;20230;-68
2024/01/13 03:15:43;;;;;;;10.33;6.20;;;3.90;99.90;;;;;;5014760;28;20235;-67
2024/01/13 03:18:11;;;;;;;10.83;6.50;;;3.90;99.90;;;;;;5013638;28;20206;-68
2024/01/13 03:20:36;;;;;;;10.97;6.57;;;3.90;99.90;;;;;;5011622;28;20198;-67
2024/01/13 03:23:02;;;;;;;12.60;6.93;;;3.90;99.90;;;;;;5015686;28;20189;-67
2024/01/13 03:25:27;;;;;;;10.17;6.33;;;3.90;99.90;;;;;;5015542;28;20210;-69
2024/01/13 03:27:55;;;;;;;10.07;6.60;;;3.90;99.90;;;;;;5013608;28;20198;-65
2024/01/13 03:30:23;;;;;;;10.87;6.47;;;3.90;99.90;;;;;;5014192;28;20185;-68
2024/01/13 03:32:51;;;;;;;9.80;6.57;;;3.90;99.90;;;;;;5029191;28;20254;-66
2024/01/13 03:35:19;;;;;;;11.50;7.17;;;3.90;99.90;;;;;;5013233;28;20216;-65
2024/01/13 03:37:45;;;;;;;12.73;6.90;;;3.90;99.90;;;;;;5016105;28;20200;-66
2024/01/13 03:40:12;;;;;;;13.37;7.13;;;3.90;99.90;;;;;;5015990;28;20189;-67
2024/01/13 03:42:41;;;;;;;12.17;6.47;;;3.90;99.90;;;;;;5013352;28;20174;-66
2024/01/13 03:45:07;;;;;;;10.13;6.40;;;3.90;99.90;;;;;;5011688;28;20201;-68
2024/01/13 03:47:32;;;;;;;11.77;6.67;;;3.90;99.90;;;;;;5014207;28;20202;-65
2024/01/13 03:49:58;;;;;;;10.17;6.50;;;3.90;99.90;;;;;;5014408;28;20265;-68
2024/01/13 03:52:23;;;;;;;9.07;5.97;;;3.90;99.90;;;;;;5013541;28;20177;-62
2024/01/13 03:54:49;;;;;;;11.10;6.43;;;3.90;99.90;;;;;;5012619;28;20263;-68
2024/01/13 03:57:15;;;;;;;10.40;6.27;;;3.90;99.90;;;;;;5015617;28;20268;-66
2024/01/13 03:59:40;;;;;;;10.40;6.47;;;3.90;99.90;;;;;;5010514;28;20210;-67
2024/01/13 04:02:08;;;;;;;9.50;6.50;;;3.90;99.90;;;;;;5017755;28;20205;-65
2024/01/13 04:04:36;;;;;;;9.23;6.00;;;3.90;99.90;;;;;;5014272;28;20244;-68
2024/01/13 04:07:02;;;;;;;11.63;6.63;;;3.90;99.90;;;;;;5014207;28;20202;-68
2024/01/13 04:09:27;;;;;;;10.50;6.33;;;3.90;99.90;;;;;;5013355;28;20240;-65
2024/01/13 04:11:53;;;;;;;10.20;6.67;;;3.90;99.90;;;;;;5013856;28;20281;-68
2024/01/13 04:14:21;;;;;;;10.20;6.00;;;3.90;99.90;;;;;;5014038;28;20433;-67
2024/01/13 04:16:47;;;;;;;10.03;6.70;;;3.90;99.90;;;;;;5011658;28;20205;-66
2024/01/13 04:19:15;;;;;;;11.73;6.80;;;3.90;99.90;;;;;;5015103;28;20202;-67
2024/01/13 04:21:41;;;;;;;11.27;6.93;;;3.90;99.90;;;;;;5012511;28;20178;-68
2024/01/13 04:24:08;;;;;;;10.30;6.93;;;3.90;99.90;;;;;;5015261;28;20272;-65
2024/01/13 04:26:38;;;;;;;10.57;6.77;;;3.90;99.90;;;;;;5014049;28;20171;-67
2024/01/13 04:29:04;;;;;;;10.03;6.60;;;3.90;99.90;;;;;;5002783;28;20182;-67
2024/01/13 04:31:29;;;;;;;11.37;7.00;;;3.90;99.90;;;;;;5015331;28;20208;-64
2024/01/13 04:33:55;;;;;;;10.87;6.77;;;3.90;99.90;;;;;;5013594;28;20297;-64
2024/01/13 04:36:23;;;;;;;10.90;6.80;;;3.90;99.90;;;;;;5014689;28;20277;-67
2024/01/13 04:38:49;;;;;;;10.17;6.63;;;3.90;99.90;;;;;;5011903;28;20198;-68
2024/01/13 04:41:18;;;;;;;11.93;7.37;;;3.90;99.90;;;;;;5014873;28;20212;-67
2024/01/13 04:43:45;;;;;;;11.40;6.97;;;4.00;99.90;;;;;;5012669;28;20185;-64
2024/01/13 04:46:12;;;;;;;10.20;6.67;;;3.90;99.90;;;;;;5012780;28;20182;-68
2024/01/13 04:48:39;;;;;;;11.43;6.60;;;3.90;99.90;;;;;;5014572;28;20186;-66
2024/01/13 04:51:05;;;;;;;11.20;7.10;;;4.00;99.90;;;;;;5012071;28;20202;-65
2024/01/13 04:53:33;;;;;;;9.43;6.70;;;3.90;99.90;;;;;;5014313;28;20178;-67
2024/01/13 04:55:59;;;;;;;13.80;6.80;;;3.90;99.90;;;;;;5013899;28;20206;-67
2024/01/13 04:58:25;;;;;;;9.70;6.33;;;3.90;99.90;;;;;;5013506;28;20201;-67
2024/01/13 05:00:53;;;;;;;9.53;6.03;;;3.90;99.90;;;;;;5008426;28;20174;-67
2024/01/13 05:03:21;;;;;;;9.93;6.40;;;3.90;99.90;;;;;;5011898;28;20198;-66
2024/01/13 05:05:47;;;;;;;10.40;7.20;;;3.90;99.90;;;;;;5012910;28;20178;-67
2024/01/13 05:08:12;;;;;;;10.07;6.90;;;3.90;99.90;;;;;;5010511;28;20205;-65
2024/01/13 05:10:40;;;;;;;10.97;7.43;;;3.90;99.90;;;;;;5011003;28;20530;-67
2024/01/13 05:13:06;;;;;;;10.07;6.80;;;3.90;99.90;;;;;;5013552;28;20186;-63
2024/01/13 05:15:34;;;;;;;9.53;6.77;;;3.90;99.90;;;;;;5014731;28;20182;-67
2024/01/13 05:17:59;;;;;;;8.80;6.17;;;3.90;99.90;;;;;;5013733;28;20221;-67
2024/01/13 05:20:25;;;;;;;9.57;7.33;;;3.90;99.90;;;;;;5029429;28;20173;-67
2024/01/13 05:22:51;;;;;;;10.03;6.43;;;3.90;99.90;;;;;;5012367;28;20184;-68
2024/01/13 05:25:18;;;;;;;11.67;7.67;;;3.90;99.90;;;;;;5013153;28;20217;-67
2024/01/13 05:27:44;;;;;;;9.47;6.83;;;3.90;99.90;;;;;;5006919;28;20249;-67
2024/01/13 05:30:12;;;;;;;9.43;6.57;;;3.90;99.90;;;;;;5013746;28;20197;-66
2024/01/13 05:32:39;;;;;;;9.10;6.97;;;3.90;99.90;;;;;;5013331;28;20259;-68
2024/01/13 05:35:05;;;;;;;9.87;7.03;;;3.90;99.90;;;;;;5013102;28;20190;-69
2024/01/13 05:37:31;;;;;;;8.87;6.20;;;3.90;99.90;;;;;;5011526;28;20246;-68
2024/01/13 05:39:59;;;;;;;11.20;7.50;;;3.90;99.90;;;;;;5027138;28;20216;-69
2024/01/13 05:42:27;;;;;;;11.43;8.03;;;3.90;99.90;;;;;;5013842;28;20178;-66
2024/01/13 05:44:53;;;;;;;10.17;7.30;;;3.90;99.90;;;;;;5010625;28;20170;-67
2024/01/13 05:47:18;;;;;;;9.60;6.57;;;3.90;99.90;;;;;;5014028;28;20196;-67
2024/01/13 05:49:46;;;;;;;9.67;6.73;;;3.90;99.90;;;;;;5014828;28;20320;-67
2024/01/13 05:52:12;;;;;;;9.37;6.93;;;3.90;99.90;;;;;;5016804;28;20220;-66
2024/01/13 05:54:39;;;;;;;9.50;6.90;;;3.90;99.90;;;;;;5018862;28;20178;-65
2024/01/13 05:57:06;;;;;;;8.50;6.53;;;3.90;99.90;;;;;;5016504;28;20190;-63
2024/01/13 05:59:32;;;;;;;8.03;5.80;;;4.00;99.90;;;;;;5014616;28;20226;-67
2024/01/13 06:01:58;;;;;;;8.67;6.63;;;4.00;99.90;;;;;;5016484;28;20217;-66
2024/01/13 06:04:25;;;;;;;9.30;6.10;;;4.00;99.90;;;;;;5013158;28;20182;-65
2024/01/13 06:06:51;;;;;;;8.43;6.33;;;4.00;99.90;;;;;;5016049;28;20195;-66
2024/01/13 06:09:16;;;;;;;7.97;5.87;;;4.00;99.90;;;;;;5016629;28;20197;-66
2024/01/13 06:11:42;;;;;;;8.27;6.13;;;4.00;99.90;;;;;;5016736;28;20207;-64
2024/01/13 06:14:11;;;;;;;8.63;6.30;;;4.10;99.90;;;;;;5017423;28;20296;-65
2024/01/13 06:16:39;;;;;;;8.57;6.40;;;4.00;99.90;;;;;;5015933;28;20278;-67
2024/01/13 06:19:07;;;;;;;8.90;5.90;;;4.00;99.90;;;;;;5017399;28;20202;-67
2024/01/13 06:21:42;;;;;;;8.40;6.23;;;4.10;99.90;;;;;;5014838;28;20194;-66
2024/01/13 06:24:12;;;;;;;8.47;6.17;;;4.10;99.90;;;;;;5015704;28;20184;-66
2024/01/13 06:26:39;;;;;;;8.67;6.13;;;4.10;99.90;;;;;;5016072;28;20224;-67
2024/01/13 06:29:06;;;;;;;9.10;6.17;;;4.10;99.90;;;;;;5016924;28;20236;-67
2024/01/13 06:31:32;;;;;;;8.07;5.77;;;4.10;99.90;;;;;;5016474;28;20186;-65
2024/01/13 06:33:59;;;;;;;7.83;5.90;;;4.10;99.90;;;;;;5015868;28;20213;-68
2024/01/13 06:36:25;;;;;;;10.87;7.17;;;4.10;99.90;;;;;;5016593;28;20190;-69
2024/01/13 06:38:51;;;;;;;9.60;6.73;;;4.10;99.90;;;;;;5017469;28;20209;-68
2024/01/13 06:41:16;;;;;;;7.97;6.43;;;4.10;99.90;;;;;;5017180;28;20246;-67
2024/01/13 06:43:42;;;;;;;8.33;5.90;;;4.10;99.90;;;;;;5015533;28;20197;-66
2024/01/13 06:46:08;;;;;;;8.37;6.30;;;4.10;99.90;;;;;;5014067;28;20212;-67
2024/01/13 06:48:36;;;;;;;8.83;6.43;;;4.20;99.90;;;;;;5017023;28;20187;-66
2024/01/13 06:51:02;;;;;;;8.40;6.30;;;4.20;99.90;;;;;;5015428;28;20474;-66
2024/01/13 06:53:27;;;;;;;7.83;5.93;;;4.20;99.90;;;;;;5031271;28;20289;-66
2024/01/13 06:55:53;;;;;;;8.50;6.73;;;4.20;99.90;;;;;;5016634;28;20281;-64
2024/01/13 06:58:19;;;;;;;8.17;6.57;;;4.20;99.90;;;;;;5015810;28;20213;-65
2024/01/13 07:00:44;;;;;;;8.63;6.40;;;4.20;99.90;;;;;;5014010;28;20228;-68
2024/01/13 07:03:12;;;;;;;8.03;6.27;;;4.30;99.90;;;;;;5018570;28;20177;-65
2024/01/13 07:05:38;;;;;;;9.13;7.10;;;4.30;99.90;;;;;;5008115;28;20260;-66
2024/01/13 07:08:08;;;;;;;9.17;6.80;;;4.30;99.90;;;;;;5018473;28;20293;-67
2024/01/13 07:10:34;;;;;;;9.20;7.30;;;4.30;99.90;;;;;;5017536;28;20186;-64
2024/01/13 07:13:02;;;;;;;9.20;6.97;;;4.30;99.90;;;;;;5018344;28;20201;-67
2024/01/13 07:15:28;;;;;;;8.60;7.00;;;4.30;99.90;;;;;;5018540;28;20174;-67
2024/01/13 07:17:56;;;;;;;12.20;7.07;;;4.30;99.90;;;;;;5000854;28;20217;-67
2024/01/13 07:20:28;;;;;;;10.00;7.47;;;4.30;99.90;;;;;;5016783;28;20178;-68
2024/01/13 07:22:54;;;;;;;9.73;7.80;;;4.30;99.90;;;;;;5018092;28;20217;-66
2024/01/13 07:25:19;;;;;;;10.70;7.57;;;4.30;99.90;;;;;;5016514;28;20177;-68
2024/01/13 07:27:47;;;;;;;9.57;7.40;;;4.30;99.90;;;;;;5018586;28;20235;-67
2024/01/13 07:30:19;;;;;;;11.37;8.17;;;4.20;99.90;;;;;;5014416;28;20256;-68
2024/01/13 07:32:47;;;;;;;10.93;7.97;;;4.30;99.90;;;;;;5023342;28;20182;-67
2024/01/13 07:35:14;;;;;;;9.27;7.67;;;4.30;99.90;;;;;;5017683;28;20212;-66
2024/01/13 07:37:40;;;;;;;10.30;8.07;;;4.20;99.90;;;;;;5016497;28;20177;-67
2024/01/13 07:40:09;;;;;;;10.57;8.17;;;4.20;99.90;;;;;;5014982;28;20320;-68
2024/01/13 07:42:39;;;;;;;13.27;8.93;;;4.20;99.90;;;;;;5016749;28;20472;-66
2024/01/13 07:45:07;;;;;;;11.20;8.70;;;4.20;99.90;;;;;;5014392;28;20197;-67
2024/01/13 07:47:33;;;;;;;9.80;7.70;;;4.20;99.90;;;;;;5014778;28;20319;-65
2024/01/13 07:50:03;;;;;;;10.60;8.13;;;4.20;99.90;;;;;;5017266;28;20362;-67
2024/01/13 07:52:31;;;;;;;8.90;7.13;;;4.20;99.90;;;;;;5015008;28;20348;-67
2024/01/13 07:54:57;;;;;;;11.00;8.47;;;4.20;99.90;;;;;;5015221;28;20181;-67
2024/01/13 07:57:24;;;;;;;12.10;8.97;;;4.20;99.90;;;;;;5018420;28;20186;-67
2024/01/13 07:59:52;;;;;;;10.57;8.50;;;4.20;99.90;;;;;;5018050;28;20283;-68
2024/01/13 08:02:20;;;;;;;9.60;8.23;;;4.20;99.90;;;;;;5020041;28;20185;-68
2024/01/13 08:04:48;;;;;;;13.20;8.90;;;4.20;99.90;;;;;;5010886;28;20502;-67
2024/01/13 08:07:16;;;;;;;10.40;8.23;;;4.20;99.90;;;;;;5031313;28;20465;-66
2024/01/13 08:09:45;;;;;;;11.93;8.77;;;4.20;99.90;;;;;;5002579;28;20178;-67
2024/01/13 08:12:12;;;;;;;14.37;9.80;;;4.30;99.90;;;;;;5024978;28;20202;-66
2024/01/13 08:14:40;;;;;;;11.03;8.67;;;4.20;99.90;;;;;;5016312;28;20186;-67
2024/01/13 08:17:07;;;;;;;10.40;8.50;;;4.30;99.90;;;;;;5017127;28;20197;-68
2024/01/13 08:19:35;;;;;;;11.03;8.97;;;4.20;99.90;;;;;;5017205;28;20210;-68
2024/01/13 08:22:00;;;;;;;9.93;8.37;;;4.20;99.90;;;;;;5016400;28;20273;-67
2024/01/13 08:24:26;;;;;;;10.27;8.53;;;4.20;99.90;;;;;;5017162;28;20408;-67
2024/01/13 08:26:54;;;;;;;9.90;8.40;;;4.30;99.90;;;;;;5003917;28;20186;-67
2024/01/13 08:29:19;;;;;;;11.17;8.80;;;4.20;99.90;;;;;;5015870;28;20221;-66
2024/01/13 08:31:48;;;;;;;9.37;7.77;;;4.20;99.90;;;;;;5005905;28;20208;-67
2024/01/13 08:34:13;;;;;;;11.30;8.63;;;4.20;99.90;;;;;;5017195;28;20256;-67
2024/01/13 08:36:41;;;;;;;10.93;9.07;;;4.20;99.90;;;;;;5033101;28;20198;-67
2024/01/13 08:39:07;;;;;;;11.57;8.90;;;4.20;99.90;;;;;;5016178;28;20221;-66
2024/01/13 08:41:33;;;;;;;11.37;9.13;;;4.20;99.90;;;;;;5017204;28;20201;-66
2024/01/13 08:44:02;;;;;;;11.83;9.73;;;4.20;99.90;;;;;;5014460;28;20260;-66
2024/01/13 08:46:28;;;;;;;11.97;8.77;;;4.20;99.90;;;;;;5001210;28;20198;-68
2024/01/13 08:48:56;;;;;;;10.90;9.57;;;4.20;99.90;;;;;;5016153;28;20399;-67
2024/01/13 08:51:22;;;;;;;10.70;8.93;;;4.30;99.90;;;;;;5011872;28;20186;-69
2024/01/13 08:53:47;;;;;;;11.23;9.17;;;4.20;99.90;;;;;;5016591;28;20209;-68
2024/01/13 08:56:14;;;;;;;10.90;8.80;;;4.20;99.90;;;;;;5016237;28;20189;-66
2024/01/13 08:58:41;;;;;;;12.30;10.17;;;4.20;99.90;;;;;;5013799;28;20301;-67
2024/01/13 09:01:06;;;;;;;11.90;9.80;;;4.20;99.90;;;;;;5020493;28;20171;-65
2024/01/13 09:03:32;;;;;;;9.73;8.40;;;4.50;99.90;;;;;;5014206;28;20174;-69
2024/01/13 09:06:00;;;;;;;11.07;9.50;;;4.30;99.90;;;;;;5004486;28;20220;-67
2024/01/13 09:08:25;;;;;;;11.87;10.43;;;4.30;99.90;;;;;;5016158;28;20205;-68
2024/01/13 09:10:54;;;;;;;13.13;10.57;;;4.30;99.90;;;;;;5011570;28;20269;-69
2024/01/13 09:13:22;;;;;;;12.70;10.30;;;4.30;99.90;;;;;;5010895;28;20202;-69
2024/01/13 09:15:47;;;;;;;11.07;9.13;;;4.40;99.90;;;;;;5016386;28;20201;-67
2024/01/13 09:18:15;;;;;;;11.77;8.97;;;4.30;99.90;;;;;;5016347;28;20213;-62
2024/01/13 09:20:43;;;;;;;11.73;9.53;;;4.30;99.90;;;;;;5013691;28;20209;-63
2024/01/13 09:23:08;;;;;;;11.07;9.33;;;4.30;99.90;;;;;;5006410;28;20181;-64
2024/01/13 09:25:36;;;;;;;10.33;8.80;;;4.30;99.90;;;;;;5015260;28;20178;-64
2024/01/13 09:28:02;;;;;;;11.50;9.77;;;4.30;99.90;;;;;;5016686;28;20327;-64
2024/01/13 09:30:28;;;;;;;10.07;8.07;;;4.30;99.90;;;;;;5009966;28;20265;-64
2024/01/13 09:32:53;;;;;;;9.87;7.67;;;4.30;99.90;;;;;;5007505;28;20174;-63
2024/01/13 09:35:19;;;;;;;10.07;7.93;;;4.40;99.90;;;;;;5009988;28;20204;-65
2024/01/13 09:37:44;;;;;;;8.77;7.37;;;4.40;99.90;;;;;;5016230;28;20251;-64
2024/01/13 09:40:12;;;;;;;8.73;7.20;;;4.40;99.90;;;;;;5013123;28;20229;-65
2024/01/13 09:42:55;;;;;;;9.57;7.83;;;4.40;99.90;;;;;;5016361;28;20178;-65
2024/01/13 09:45:24;;;;;;;8.60;7.17;;;4.40;99.90;;;;;;5010483;28;20182;-65
2024/01/13 09:47:54;;;;;;;10.83;8.00;;;4.40;99.90;;;;;;5013437;28;20288;-65
2024/01/13 09:50:19;;;;;;;9.57;7.57;;;4.50;99.90;;;;;;5015347;28;20190;-65
2024/01/13 09:52:46;;;;;;;10.00;7.37;;;4.50;99.90;;;;;;5015887;28;20200;-64
2024/01/13 09:55:15;;;;;;;8.30;6.87;;;4.50;99.90;;;;;;5015909;28;20193;-65
2024/01/13 09:57:41;;;;;;;7.97;6.80;;;4.50;99.90;;;;;;5011972;28;20186;-64
2024/01/13 10:00:10;;;;;;;8.67;7.73;;;4.50;99.90;;;;;;5027616;28;20264;-64
2024/01/13 10:02:36;;;;;;;8.27;6.80;;;4.50;99.90;;;;;;5017200;28;20178;-64
2024/01/13 10:05:02;;;;;;;9.10;7.70;;;4.50;99.90;;;;;;5013520;28;20205;-64
2024/01/13 10:07:32;;;;;;;9.07;6.83;;;4.60;99.90;;;;;;5016904;28;20209;-65
2024/01/13 10:09:59;;;;;;;8.60;7.37;;;4.50;99.90;;;;;;5011131;28;20179;-64
2024/01/13 10:12:28;;;;;;;8.23;6.90;;;4.50;99.90;;;;;;5012163;28;20616;-66
2024/01/13 10:14:53;;;;;;;9.53;6.90;;;4.50;99.90;;;;;;5023680;28;20316;-63
2024/01/13 10:17:22;;;;;;;7.30;6.27;;;4.50;99.90;;;;;;5017045;28;20251;-65
2024/01/13 10:19:49;;;;;;;7.03;6.10;;;4.50;99.90;;;;;;5015394;28;20202;-64
2024/01/13 10:22:15;;;;;;;7.80;6.03;;;4.50;99.90;;;;;;5032008;28;20470;-65
2024/01/13 10:24:41;;;;;;;7.47;5.93;;;4.50;99.90;;;;;;5006488;28;20277;-65
2024/01/13 10:27:09;;;;;;;6.80;5.53;;;4.50;99.90;;;;;;5016286;28;20260;-64
2024/01/13 10:29:35;;;;;;;6.93;6.00;;;4.60;99.90;;;;;;5015369;28;20193;-65
2024/01/13 10:32:02;;;;;;;7.00;5.83;;;4.60;99.90;;;;;;5008874;28;20201;-64
2024/01/13 10:34:30;;;;;;;7.00;5.93;;;4.60;99.90;;;;;;5024079;28;20362;-65
2024/01/13 10:37:11;;;;;;;7.13;6.10;;;4.60;99.90;;;;;;5020871;28;20173;-65
2024/01/13 10:39:36;;;;;;;6.50;5.80;;;4.60;99.90;;;;;;5018743;28;20202;-65
2024/01/13 10:42:08;;;;;;;6.63;5.20;;;4.60;99.90;;;;;;5010894;28;20316;-65
2024/01/13 10:44:42;;;;;;;7.30;6.00;;;4.60;99.90;;;;;;5017800;28;20276;-65
2024/01/13 10:47:16;;;;;;;6.90;6.07;;;4.60;99.90;;;;;;5017393;28;20181;-65
2024/01/13 10:49:49;;;;;;;6.00;5.40;;;4.60;99.90;;;;;;5020592;28;20269;-65
2024/01/13 10:52:42;;;;;;;7.00;5.70;;;4.50;99.90;;;;;;5033896;28;20178;-62
2024/01/13 10:55:09;;;;;;;6.90;5.50;;;4.60;99.90;;;;;;5026977;28;20211;-65
2024/01/13 10:57:36;;;;;;;6.03;5.37;;;4.60;99.90;;;;;;5012423;28;20206;-63
2024/01/13 11:00:06;;;;;;;7.10;5.60;;;4.60;99.90;;;;;;5015704;28;20454;-63
2024/01/13 11:02:35;;;;;;;8.13;5.50;;;4.60;99.90;;;;;;5015860;28;20229;-65
2024/01/13 11:05:04;;;;;;;6.57;5.33;;;4.80;99.90;;;;;;5018546;28;20241;-64
2024/01/13 11:07:30;;;;;;;8.43;6.53;;;4.60;99.90;;;;;;5016624;28;20173;-64
2024/01/13 11:09:59;;;;;;;6.90;5.67;;;4.60;99.90;;;;;;5029916;28;20180;-63
2024/01/13 11:12:33;;;;;;;5.97;5.27;;;4.60;99.90;;;;;;5029313;28;20194;-65
2024/01/13 11:15:03;;;;;;;6.37;5.27;;;4.60;99.90;;;;;;5042227;28;20197;-64
2024/01/13 11:17:30;;;;;;;6.20;5.40;;;4.60;99.90;;;;;;5017678;28;20202;-63
2024/01/13 11:19:55;;;;;;;6.50;5.10;;;4.60;99.90;;;;;;5021300;28;20206;-64
2024/01/13 11:22:41;;;;;;;6.33;5.23;;;4.70;99.90;;;;;;5017996;28;20255;-64
2024/01/13 11:25:22;;;;;;;7.00;5.83;;;4.70;99.90;;;;;;5018251;28;20182;-63
2024/01/13 11:27:53;;;;;;;7.17;5.60;;;4.80;99.90;;;;;;5013357;28;20169;-64
2024/01/13 11:30:41;;;;;;;6.63;5.33;;;4.80;99.90;;;;;;4998677;28;20167;-64
2024/01/13 11:33:09;;;;;;;6.47;5.33;;;4.80;99.90;;;;;;5017032;28;20174;-64
2024/01/13 11:35:39;;;;;;;5.33;4.83;;;4.70;99.90;;;;;;5014237;28;20226;-64
2024/01/13 11:38:06;;;;;;;5.27;4.60;;;4.80;99.90;;;;;;5002430;28;20264;-64
2024/01/13 11:40:35;;;;;;;5.50;4.90;;;4.70;99.90;;;;;;5015871;28;20204;-64
2024/01/13 11:43:01;;;;;;;6.30;5.37;;;4.70;99.90;;;;;;5014453;28;20178;-64
2024/01/13 11:45:37;;;;;;;5.87;4.90;;;4.70;99.90;;;;;;5015913;28;20266;-65
2024/01/13 11:48:30;;;;;;;6.97;5.77;;;4.60;99.90;;;;;;4999374;28;20186;-64
2024/01/13 11:51:01;;;;;;;6.37;4.70;;;4.60;99.90;;;;;;5013475;28;20257;-65
2024/01/13 11:53:40;;;;;;;6.43;4.70;;;4.60;99.90;;;;;;5016991;28;20186;-64
2024/01/13 11:56:07;;;;;;;6.40;5.00;;;4.60;99.90;;;;;;5012023;28;20382;-65
2024/01/13 11:58:37;;;;;;;6.20;5.00;;;4.60;99.90;;;;;;5017209;28;20229;-64
2024/01/13 12:01:09;;;;;;;5.77;5.07;;;4.60;99.90;;;;;;5015885;28;20186;-64
2024/01/13 12:03:34;;;;;;;5.17;4.30;;;4.60;99.90;;;;;;5007984;28;20178;-64
2024/01/13 12:06:06;;;;;;;6.23;5.10;;;4.60;99.90;;;;;;5016254;28;20190;-65
2024/01/13 12:08:32;;;;;;;7.10;5.40;;;4.60;99.90;;;;;;5009223;28;21318;-65
2024/01/13 12:10:58;;;;;;;5.60;5.00;;;4.60;99.90;;;;;;5014042;28;20181;-65
2024/01/13 12:13:23;;;;;;;6.90;5.43;;;4.60;99.90;;;;;;4999434;28;20230;-65
2024/01/13 12:15:51;;;;;;;7.57;5.70;;;4.50;99.90;;;;;;5005755;28;20488;-65
2024/01/13 12:18:21;;;;;;;7.50;6.27;;;4.50;99.90;;;;;;5031707;28;20213;-65
2024/01/13 12:20:50;;;;;;;7.70;6.40;;;4.50;99.90;;;;;;5014623;28;20185;-65
2024/01/13 12:23:18;;;;;;;8.83;7.03;;;4.50;99.90;;;;;;5011395;28;20182;-64
2024/01/13 12:25:44;;;;;;;8.33;7.10;;;4.50;99.90;;;;;;5018347;28;20189;-63
2024/01/13 12:28:10;;;;;;;8.60;7.03;;;4.50;99.90;;;;;;5042940;28;20174;-64
2024/01/13 12:30:37;;;;;;;9.57;7.63;;;4.50;99.90;;;;;;5017899;28;20197;-64
2024/01/13 12:33:06;;;;;;;8.93;7.70;;;4.50;99.90;;;;;;5019949;28;20198;-65
2024/01/13 12:35:34;;;;;;;9.23;7.23;;;4.50;99.90;;;;;;5016269;28;20204;-65
2024/01/13 12:38:00;;;;;;;9.80;7.93;;;4.40;99.90;;;;;;5018468;28;20212;-65
2024/01/13 12:40:30;;;;;;;8.03;6.60;;;4.40;99.90;;;;;;5024175;28;20222;-64
2024/01/13 12:42:57;;;;;;;10.60;7.57;;;4.40;99.90;;;;;;5015219;28;20189;-65
2024/01/13 12:45:26;;;;;;;10.20;8.10;;;4.40;99.90;;;;;;5009108;28;20175;-64
2024/01/13 12:47:55;;;;;;;10.33;8.13;;;4.40;99.90;;;;;;5012132;28;20182;-64
2024/01/13 12:50:23;;;;;;;11.17;7.87;;;4.40;99.90;;;;;;5000548;28;20213;-63
2024/01/13 12:52:49;;;;;;;10.63;8.17;;;4.40;99.90;;;;;;5013313;28;20210;-64